Warwick, Rhode Island
Current Conditions -  °F | °C
As of 7:51 AM on Saturday 25 Oct 2014 (Local Time) from KPVD Reporting Station
Scattered Clouds Scattered Clouds  
Wind Chill: 42°   Ceiling: Unl
Heat Index: 46°   Visibility: 10mi
Dew Point: 40°   Wind: 7mph
Humidity: 79%   Direction: 260°W
Pressure: 29.8"   Gusts: NA
Location:  41.7°N, 71.46°W
Report Text: KPVD 251151Z 26006KT 10SM FEW150 SCT250 08/04 A2980 RMK AO2 SLP090 T00780044 10083 20061 51005
Loading
Personal Weather Stations






























Interactive Weather Map
Tropical Storm Tracking
New forecast layout! Learn more

10-Day Weather Forecast

Advertisements
Track Severe Weather on mobile